createdAt,value
2022-10-17T00:00:05.119Z,5
2022-10-17T00:02:05.211Z,5
2022-10-17T00:04:05.297Z,5
2022-10-17T00:06:05.378Z,5
2022-10-17T00:08:05.471Z,5
2022-10-17T00:12:05.649Z,5
2022-10-17T00:16:05.849Z,5
2022-10-17T00:18:05.905Z,5
2022-10-17T00:20:05.993Z,5
2022-10-17T00:22:06.077Z,5
2022-10-17T00:24:06.174Z,5
2022-10-17T00:26:06.265Z,5
2022-10-17T00:28:06.356Z,5
2022-10-17T00:30:06.440Z,5
2022-10-17T00:32:06.535Z,5
2022-10-17T00:34:36.694Z,5
2022-10-17T00:36:36.806Z,5
2022-10-17T00:38:36.924Z,5
2022-10-17T00:40:37.043Z,5
2022-10-17T00:42:37.153Z,5
2022-10-17T00:44:37.296Z,6
2022-10-17T00:46:37.380Z,6
2022-10-17T00:48:37.491Z,6
2022-10-17T00:50:37.626Z,6
2022-10-17T00:52:37.731Z,7
2022-10-17T00:54:37.854Z,7
2022-10-17T00:56:38.032Z,8
2022-10-17T00:58:38.063Z,8
2022-10-17T01:00:38.171Z,7
2022-10-17T01:02:38.295Z,7
2022-10-17T01:04:38.403Z,7
2022-10-17T01:06:38.535Z,8
2022-10-17T01:08:38.652Z,8
2022-10-17T01:10:38.771Z,8
2022-10-17T01:12:38.861Z,8
2022-10-17T01:14:38.943Z,8
2022-10-17T01:16:39.139Z,7
2022-10-17T01:18:39.150Z,8
2022-10-17T01:20:39.264Z,8
2022-10-17T01:22:39.357Z,8
2022-10-17T01:24:39.464Z,8
2022-10-17T01:26:39.568Z,8
2022-10-17T01:28:39.736Z,8
2022-10-17T01:30:39.736Z,7
2022-10-17T01:32:39.839Z,8
2022-10-17T01:34:39.946Z,8
2022-10-17T01:36:40.175Z,8
2022-10-17T01:38:40.143Z,9
2022-10-17T01:40:40.348Z,9
2022-10-17T01:42:40.368Z,9
2022-10-17T01:44:40.471Z,10
2022-10-17T01:48:40.702Z,10
2022-10-17T01:52:40.887Z,11
2022-10-17T01:54:41.010Z,10
2022-10-17T01:56:41.207Z,10
2022-10-17T01:58:41.267Z,10
2022-10-17T02:00:41.367Z,10
2022-10-17T02:02:41.485Z,9
2022-10-17T02:04:41.599Z,10
2022-10-17T02:06:41.695Z,10
2022-10-17T02:08:41.822Z,9
2022-10-17T02:10:41.901Z,9
2022-10-17T02:12:42.021Z,8
2022-10-17T02:14:42.106Z,8
2022-10-17T02:16:42.251Z,8
2022-10-17T02:18:42.293Z,7
2022-10-17T02:22:42.491Z,7
2022-10-17T02:24:42.587Z,6
2022-10-17T02:26:42.664Z,6
2022-10-17T02:28:43.047Z,6
2022-10-17T02:30:42.856Z,6
2022-10-17T02:34:43.090Z,6
2022-10-17T02:38:43.249Z,6
2022-10-17T02:40:43.348Z,6
2022-10-17T02:44:43.563Z,7
2022-10-17T02:46:43.666Z,6
2022-10-17T02:48:43.751Z,6
2022-10-17T02:50:43.865Z,6
2022-10-17T02:54:44.059Z,6
2022-10-17T02:56:44.202Z,6
2022-10-17T02:58:44.244Z,6
2022-10-17T03:02:44.445Z,7
2022-10-17T03:04:44.526Z,6
2022-10-17T03:06:44.610Z,7
2022-10-17T03:08:44.707Z,6
2022-10-17T03:10:44.800Z,6
2022-10-17T03:12:44.884Z,6
2022-10-17T03:14:44.972Z,5
2022-10-17T03:16:45.065Z,5
2022-10-17T03:18:47.921Z,5
2022-10-17T03:20:45.253Z,5
2022-10-17T03:22:45.350Z,5
2022-10-17T03:24:45.458Z,6
2022-10-17T03:28:46.254Z,6
2022-10-17T03:30:45.767Z,6
2022-10-17T03:32:45.872Z,5
2022-10-17T03:36:46.080Z,5
2022-10-17T03:38:46.176Z,5
2022-10-17T03:40:46.264Z,5
2022-10-17T03:42:46.362Z,5
2022-10-17T03:46:46.568Z,5
2022-10-17T03:48:46.661Z,5
2022-10-17T03:50:46.771Z,5
2022-10-17T03:52:46.856Z,5
2022-10-17T03:54:46.938Z,5
2022-10-17T03:56:47.137Z,5
2022-10-17T03:58:47.115Z,5
2022-10-17T04:00:47.222Z,5
2022-10-17T04:02:47.318Z,5
2022-10-17T04:04:47.405Z,5
2022-10-17T04:06:47.512Z,5
2022-10-17T04:12:47.800Z,4
2022-10-17T04:14:47.885Z,5
2022-10-17T04:16:48.080Z,4
2022-10-17T04:18:48.171Z,5
2022-10-17T04:20:48.156Z,6
2022-10-17T04:22:48.257Z,5
2022-10-17T04:24:48.366Z,5
2022-10-17T04:26:48.442Z,6
2022-10-17T04:28:48.538Z,7
2022-10-17T04:30:49.968Z,7
2022-10-17T04:32:48.729Z,7
2022-10-17T04:34:48.852Z,7
2022-10-17T04:40:49.093Z,7
2022-10-17T04:42:49.186Z,6
2022-10-17T04:44:49.300Z,7
2022-10-17T04:46:49.392Z,6
2022-10-17T04:48:49.471Z,6
2022-10-17T04:50:49.560Z,6
2022-10-17T04:52:49.649Z,8
2022-10-17T04:54:49.968Z,8
2022-10-17T04:56:49.890Z,9
2022-10-17T04:58:49.939Z,9
2022-10-17T05:00:50.096Z,9
2022-10-17T05:02:50.105Z,9
2022-10-17T05:04:50.218Z,9
2022-10-17T05:06:50.299Z,9
2022-10-17T05:08:50.380Z,10
2022-10-17T05:10:50.515Z,10
2022-10-17T05:12:50.593Z,9
2022-10-17T05:14:50.652Z,8
2022-10-17T05:16:50.739Z,9
2022-10-17T05:18:52.798Z,8
2022-10-17T05:20:50.915Z,8
2022-10-17T05:22:51.002Z,8
2022-10-17T05:24:51.100Z,8
2022-10-17T05:26:51.181Z,8
2022-10-17T05:28:51.271Z,8
2022-10-17T05:30:51.339Z,8
2022-10-17T05:32:51.451Z,8
2022-10-17T05:34:51.560Z,9
2022-10-17T05:36:51.602Z,8
2022-10-17T05:38:51.680Z,9
2022-10-17T05:40:51.767Z,9
2022-10-17T05:42:51.944Z,9
2022-10-17T05:44:51.956Z,9
2022-10-17T05:46:52.048Z,9
2022-10-17T05:48:52.158Z,9
2022-10-17T05:51:22.275Z,9
2022-10-17T05:53:22.398Z,9
2022-10-17T05:55:22.519Z,9
2022-10-17T05:57:22.625Z,9
2022-10-17T05:59:22.728Z,9
2022-10-17T06:01:22.850Z,9
2022-10-17T06:03:22.957Z,9
2022-10-17T06:05:23.078Z,8
2022-10-17T06:07:23.186Z,10
2022-10-17T06:09:23.308Z,10
2022-10-17T06:11:23.419Z,9
2022-10-17T06:13:23.546Z,10
2022-10-17T06:15:23.684Z,11
2022-10-17T06:17:24.055Z,11
2022-10-17T06:19:23.867Z,11
2022-10-17T06:21:23.987Z,11
2022-10-17T06:23:24.087Z,10
2022-10-17T06:25:24.286Z,10
2022-10-17T06:27:24.323Z,11
2022-10-17T06:29:24.434Z,11
2022-10-17T06:31:24.542Z,11
2022-10-17T06:33:24.660Z,12
2022-10-17T06:35:24.781Z,13
2022-10-17T06:37:24.892Z,13
2022-10-17T06:39:25.013Z,13
2022-10-17T06:41:25.116Z,13
2022-10-17T06:43:27.852Z,14
2022-10-17T06:45:25.342Z,16
2022-10-17T06:47:25.448Z,15
2022-10-17T06:49:25.613Z,16
2022-10-17T06:51:25.668Z,17
2022-10-17T06:53:25.783Z,19
2022-10-17T06:55:25.904Z,19
2022-10-17T06:57:26.273Z,25
2022-10-17T06:59:26.106Z,23
2022-10-17T07:01:26.219Z,25
2022-10-17T07:03:26.330Z,23
2022-10-17T07:05:26.440Z,22
2022-10-17T07:07:26.658Z,21
2022-10-17T07:09:26.651Z,21
2022-10-17T07:11:26.745Z,20
2022-10-17T07:13:26.870Z,21
2022-10-17T07:15:26.957Z,21
2022-10-17T07:17:27.239Z,21
2022-10-17T07:21:27.268Z,20
2022-10-17T07:23:27.387Z,20
2022-10-17T07:25:27.495Z,18
2022-10-17T07:27:27.969Z,19
2022-10-17T07:29:27.697Z,18
2022-10-17T07:31:27.825Z,17
2022-10-17T07:33:27.880Z,17
2022-10-17T07:35:27.991Z,17
2022-10-17T07:37:28.340Z,16
2022-10-17T07:39:28.210Z,15
2022-10-17T07:41:28.332Z,15
2022-10-17T07:43:28.431Z,15
2022-10-17T07:45:28.544Z,13
2022-10-17T07:47:29.001Z,12
2022-10-17T07:49:28.762Z,13
2022-10-17T07:51:28.863Z,12
2022-10-17T07:53:28.998Z,15
2022-10-17T07:55:29.061Z,17
2022-10-17T07:57:29.150Z,13
2022-10-17T07:59:29.267Z,14
2022-10-17T08:03:29.475Z,16
2022-10-17T08:05:29.591Z,14
2022-10-17T08:07:29.733Z,14
2022-10-17T08:09:29.806Z,14
2022-10-17T08:11:29.863Z,15
2022-10-17T08:15:31.898Z,14
2022-10-17T08:17:30.149Z,15
2022-10-17T08:19:30.237Z,15
2022-10-17T08:21:30.324Z,14
2022-10-17T08:23:30.423Z,13
2022-10-17T08:25:30.493Z,14
2022-10-17T08:27:30.632Z,13
2022-10-17T08:29:30.697Z,13
2022-10-17T08:31:30.772Z,12
2022-10-17T08:33:30.871Z,12
2022-10-17T08:35:30.972Z,12
2022-10-17T08:37:31.668Z,12
2022-10-17T08:39:31.162Z,12
2022-10-17T08:43:35.194Z,12
2022-10-17T08:45:31.442Z,12
2022-10-17T08:47:31.888Z,12
2022-10-17T08:49:31.610Z,11
2022-10-17T08:51:31.711Z,12
2022-10-17T08:53:31.802Z,11
2022-10-17T08:55:31.894Z,11
2022-10-17T08:57:32.606Z,11
2022-10-17T08:59:32.084Z,11
2022-10-17T09:01:32.178Z,11
2022-10-17T09:03:32.280Z,11
2022-10-17T09:05:32.359Z,11
2022-10-17T09:07:32.856Z,11
2022-10-17T09:09:32.538Z,12
2022-10-17T09:11:32.626Z,11
2022-10-17T09:13:32.770Z,11
2022-10-17T09:15:32.809Z,11
2022-10-17T09:17:33.062Z,11
2022-10-17T09:19:33.110Z,11
2022-10-17T09:21:33.041Z,10
2022-10-17T09:23:33.132Z,10
2022-10-17T09:25:33.219Z,10
2022-10-17T09:27:33.388Z,10
2022-10-17T09:29:37.891Z,10
2022-10-17T09:31:33.474Z,10
2022-10-17T09:33:42.548Z,10
2022-10-17T09:35:33.641Z,11
2022-10-17T09:37:33.726Z,10
2022-10-17T09:40:03.918Z,10
2022-10-17T09:42:03.997Z,10
2022-10-17T09:44:04.085Z,10
2022-10-17T09:46:04.183Z,10
2022-10-17T09:48:04.311Z,10
2022-10-17T09:52:04.518Z,10
2022-10-17T09:54:04.637Z,10
2022-10-17T09:56:04.749Z,9
2022-10-17T09:58:04.853Z,9
2022-10-17T10:00:05.077Z,9
2022-10-17T10:02:05.088Z,9
2022-10-17T10:04:05.168Z,8
2022-10-17T10:06:05.287Z,9
2022-10-17T10:08:05.395Z,8
2022-10-17T10:10:05.515Z,9
2022-10-17T10:12:05.610Z,8
2022-10-17T10:16:05.825Z,7
2022-10-17T10:18:05.957Z,7
2022-10-17T10:20:06.024Z,7
2022-10-17T10:22:06.138Z,6
2022-10-17T10:24:06.239Z,6
2022-10-17T10:26:06.334Z,6
2022-10-17T10:28:06.467Z,6
2022-10-17T10:30:06.561Z,7
2022-10-17T10:32:13.843Z,7
2022-10-17T10:34:06.736Z,7
2022-10-17T10:36:06.831Z,6
2022-10-17T10:38:06.943Z,7
2022-10-17T10:40:07.022Z,6
2022-10-17T10:42:07.111Z,6
2022-10-17T10:44:07.210Z,6
2022-10-17T10:46:07.313Z,6
2022-10-17T10:48:07.442Z,5
2022-10-17T10:50:07.541Z,6
2022-10-17T10:52:07.612Z,5
2022-10-17T10:54:07.713Z,5
2022-10-17T10:56:07.818Z,5
2022-10-17T10:58:07.909Z,5
2022-10-17T11:02:08.113Z,5
2022-10-17T11:04:08.200Z,5
2022-10-17T11:08:08.392Z,5
2022-10-17T11:10:08.546Z,5
2022-10-17T11:12:08.594Z,4
2022-10-17T11:14:11.675Z,4
2022-10-17T11:18:08.854Z,4
2022-10-17T11:20:08.956Z,4
2022-10-17T11:26:09.230Z,3
2022-10-17T11:28:09.317Z,4
2022-10-17T11:30:09.459Z,4
2022-10-17T11:32:09.505Z,4
2022-10-17T11:34:09.599Z,5
2022-10-17T11:36:09.687Z,5
2022-10-17T11:38:09.801Z,5
2022-10-17T11:40:09.867Z,4
2022-10-17T11:42:09.929Z,4
2022-10-17T11:44:10.013Z,4
2022-10-17T11:46:10.077Z,4
2022-10-17T11:48:10.169Z,4
2022-10-17T11:52:55.952Z,4
2022-10-17T11:54:40.500Z,4
2022-10-17T11:56:42.926Z,4
2022-10-17T12:00:42.135Z,3
2022-10-17T12:02:40.902Z,3
2022-10-17T12:04:43.771Z,4
2022-10-17T12:08:41.248Z,4
2022-10-17T12:10:41.457Z,3
2022-10-17T12:14:41.575Z,3
2022-10-17T12:18:41.786Z,4
2022-10-17T12:22:42.065Z,4
2022-10-17T12:24:42.105Z,4
2022-10-17T12:26:42.216Z,4
2022-10-17T12:28:42.465Z,4
2022-10-17T12:30:42.417Z,3
2022-10-17T12:33:03.751Z,4
2022-10-17T12:36:42.691Z,3
2022-10-17T12:38:44.897Z,4
2022-10-17T12:40:47.730Z,4
2022-10-17T12:42:43.005Z,4
2022-10-17T12:44:44.827Z,4
2022-10-17T12:46:43.204Z,4
2022-10-17T12:48:43.303Z,3
2022-10-17T12:50:43.437Z,4
2022-10-17T12:52:43.520Z,3
2022-10-17T12:54:47.653Z,3
2022-10-17T12:56:43.636Z,2
2022-10-17T12:58:43.737Z,2
2022-10-17T13:00:54.588Z,2
2022-10-17T13:02:43.925Z,2
2022-10-17T13:04:44.026Z,3
2022-10-17T13:06:44.110Z,2
2022-10-17T13:08:44.211Z,3
2022-10-17T13:10:44.354Z,3
2022-10-17T13:12:44.401Z,3
2022-10-17T13:14:44.499Z,3
2022-10-17T13:18:44.694Z,3
2022-10-17T13:22:44.859Z,3
2022-10-17T13:24:44.928Z,3
2022-10-17T13:26:45.042Z,2
2022-10-17T13:28:45.148Z,3
2022-10-17T13:30:45.332Z,3
2022-10-17T13:32:45.283Z,2
2022-10-17T13:34:45.346Z,3
2022-10-17T13:38:45.532Z,3
2022-10-17T13:40:50.172Z,3
2022-10-17T13:42:45.699Z,4
2022-10-17T13:45:15.856Z,4
2022-10-17T13:47:15.973Z,4
2022-10-17T13:49:16.074Z,4
2022-10-17T13:51:16.234Z,4
2022-10-17T13:53:16.307Z,4
2022-10-17T13:55:17.517Z,3
2022-10-17T13:57:16.506Z,3
2022-10-17T13:59:16.613Z,3
2022-10-17T14:01:16.889Z,3
2022-10-17T14:03:16.835Z,4
2022-10-17T14:05:18.779Z,3
2022-10-17T14:07:17.189Z,3
2022-10-17T14:09:17.152Z,3
2022-10-17T14:11:17.253Z,4
2022-10-17T14:13:17.391Z,4
2022-10-17T14:15:17.449Z,3
2022-10-17T14:17:17.552Z,3
2022-10-17T14:19:17.655Z,3
2022-10-17T14:25:17.935Z,4
2022-10-17T14:27:21.586Z,3
2022-10-17T14:29:18.173Z,4
2022-10-17T14:31:18.288Z,3
2022-10-17T14:35:40.648Z,4
2022-10-17T14:37:18.526Z,4
2022-10-17T14:39:18.610Z,4
2022-10-17T14:43:18.842Z,4
2022-10-17T14:45:22.744Z,4
2022-10-17T14:49:23.385Z,4
2022-10-17T14:51:19.207Z,4
2022-10-17T14:53:19.310Z,6
2022-10-17T14:55:19.408Z,4
2022-10-17T14:57:19.505Z,5
2022-10-17T15:01:19.709Z,5
2022-10-17T15:03:19.829Z,5
2022-10-17T15:05:19.906Z,4
2022-10-17T15:07:20.001Z,4
2022-10-17T15:11:20.228Z,4
2022-10-17T15:13:29.066Z,4
2022-10-17T15:15:20.363Z,4
2022-10-17T15:17:20.439Z,4
2022-10-17T15:19:20.587Z,4
2022-10-17T15:23:20.702Z,4
2022-10-17T15:25:20.799Z,4
2022-10-17T15:27:20.854Z,4
2022-10-17T15:29:20.937Z,4
2022-10-17T15:31:21.021Z,5
2022-10-17T15:33:21.113Z,4
2022-10-17T15:35:21.211Z,9
2022-10-17T15:37:21.278Z,8
2022-10-17T15:39:21.475Z,11
2022-10-17T15:43:51.636Z,11
2022-10-17T15:45:51.750Z,9
2022-10-17T15:47:51.870Z,6
2022-10-17T15:49:51.981Z,10
2022-10-17T15:51:55.067Z,30
2022-10-17T15:53:52.199Z,13
2022-10-17T15:55:52.299Z,12
2022-10-17T15:57:52.418Z,8
2022-10-17T15:59:52.541Z,7
2022-10-17T16:01:52.646Z,7
2022-10-17T16:03:52.764Z,6
2022-10-17T16:05:52.860Z,6
2022-10-17T16:07:52.969Z,6
2022-10-17T16:09:53.080Z,6
2022-10-17T16:11:53.203Z,12
2022-10-17T16:13:53.302Z,10
2022-10-17T16:15:53.399Z,8
2022-10-17T16:17:53.513Z,8
2022-10-17T16:19:53.612Z,8
2022-10-17T16:21:53.721Z,12
2022-10-17T16:23:53.838Z,13
2022-10-17T16:25:53.945Z,8
2022-10-17T16:27:54.040Z,12
2022-10-17T16:29:54.149Z,9
2022-10-17T16:31:54.259Z,8
2022-10-17T16:35:54.482Z,7
2022-10-17T16:37:54.590Z,8
2022-10-17T16:39:54.689Z,7
2022-10-17T16:41:57.738Z,6
2022-10-17T16:43:54.909Z,6
2022-10-17T16:45:55.008Z,6
2022-10-17T16:47:55.117Z,7
2022-10-17T16:49:55.237Z,8
2022-10-17T16:51:55.296Z,10
2022-10-17T16:53:55.374Z,8
2022-10-17T16:55:55.478Z,7
2022-10-17T16:57:55.785Z,11
2022-10-17T16:59:55.702Z,10
2022-10-17T17:01:55.793Z,9
2022-10-17T17:03:55.866Z,10
2022-10-17T17:05:55.972Z,9
2022-10-17T17:07:56.068Z,9
2022-10-17T17:09:56.226Z,9
2022-10-17T17:11:56.276Z,9
2022-10-17T17:15:56.482Z,8
2022-10-17T17:17:57.325Z,7
2022-10-17T17:19:56.658Z,7
2022-10-17T17:21:56.759Z,7
2022-10-17T17:23:56.857Z,8
2022-10-17T17:25:56.935Z,9
2022-10-17T17:27:57.029Z,9
2022-10-17T17:29:57.129Z,10
2022-10-17T17:31:57.202Z,9
2022-10-17T17:33:57.326Z,12
2022-10-17T17:35:57.365Z,10
2022-10-17T17:37:57.475Z,11
2022-10-17T17:39:57.570Z,10
2022-10-17T17:41:57.647Z,11
2022-10-17T17:43:57.726Z,11
2022-10-17T17:45:57.809Z,16
2022-10-17T17:47:57.906Z,14
2022-10-17T17:49:57.982Z,16
2022-10-17T17:51:58.122Z,15
2022-10-17T17:53:58.153Z,16
2022-10-17T17:55:58.216Z,12
2022-10-17T17:57:58.284Z,14
2022-10-17T17:59:58.462Z,16
2022-10-17T18:01:58.514Z,14
2022-10-17T18:03:58.544Z,18
2022-10-17T18:05:58.638Z,13
2022-10-17T18:08:28.799Z,12
2022-10-17T18:10:28.991Z,16
2022-10-17T18:12:29.392Z,16
2022-10-17T18:14:29.286Z,17
2022-10-17T18:16:29.245Z,19
2022-10-17T18:18:29.355Z,21
2022-10-17T18:20:29.473Z,20
2022-10-17T18:22:29.818Z,13
2022-10-17T18:24:29.701Z,11
2022-10-17T18:26:29.820Z,11
2022-10-17T18:28:29.991Z,15
2022-10-17T18:30:33.673Z,35
2022-10-17T18:32:30.429Z,36
2022-10-17T18:34:30.226Z,27
2022-10-17T18:36:30.353Z,17
2022-10-17T18:38:30.457Z,16
2022-10-17T18:40:30.585Z,12
2022-10-17T18:42:30.925Z,11
2022-10-17T18:44:30.788Z,11
2022-10-17T18:46:30.984Z,9
2022-10-17T18:48:31.017Z,9
2022-10-17T18:50:31.112Z,10
2022-10-17T18:52:31.250Z,8
2022-10-17T18:54:31.387Z,8
2022-10-17T18:56:31.443Z,10
2022-10-17T18:58:31.561Z,12
2022-10-17T19:00:31.665Z,11
2022-10-17T19:02:35.531Z,11
2022-10-17T19:04:31.875Z,11
2022-10-17T19:06:32.154Z,10
2022-10-17T19:10:32.197Z,10
2022-10-17T19:12:32.312Z,13
2022-10-17T19:14:32.470Z,14
2022-10-17T19:16:32.524Z,14
2022-10-17T19:18:32.602Z,14
2022-10-17T19:20:32.704Z,13
2022-10-17T19:22:32.802Z,11
2022-10-17T19:24:32.917Z,13
2022-10-17T19:26:33.016Z,12
2022-10-17T19:28:33.180Z,10
2022-10-17T19:30:33.224Z,11
2022-10-17T19:32:33.642Z,11
2022-10-17T19:34:33.416Z,9
2022-10-17T19:36:33.862Z,9
2022-10-17T19:38:33.622Z,9
2022-10-17T19:40:33.855Z,8
2022-10-17T19:42:33.814Z,9
2022-10-17T19:44:33.931Z,8
2022-10-17T19:46:34.037Z,9
2022-10-17T19:48:34.137Z,9
2022-10-17T19:50:36.677Z,9
2022-10-17T19:52:34.438Z,10
2022-10-17T19:54:34.465Z,10
2022-10-17T19:56:34.543Z,10
2022-10-17T19:58:34.637Z,10
2022-10-17T20:00:34.739Z,10
2022-10-17T20:02:34.821Z,10
2022-10-17T20:04:34.913Z,13
2022-10-17T20:06:35.011Z,11
2022-10-17T20:08:35.112Z,11
2022-10-17T20:10:35.201Z,12
2022-10-17T20:12:35.290Z,10
2022-10-17T20:14:38.693Z,10
2022-10-17T20:16:35.473Z,9
2022-10-17T20:18:35.586Z,9
2022-10-17T20:20:35.683Z,9
2022-10-17T20:22:35.777Z,9
2022-10-17T20:24:35.866Z,10
2022-10-17T20:26:38.652Z,10
2022-10-17T20:28:36.084Z,10
2022-10-17T20:30:36.150Z,8
2022-10-17T20:32:39.610Z,8
2022-10-17T20:34:36.398Z,7
2022-10-17T20:36:36.426Z,7
2022-10-17T20:38:36.527Z,7
2022-10-17T20:40:36.734Z,6
2022-10-17T20:42:36.729Z,5
2022-10-17T20:44:36.817Z,5
2022-10-17T20:46:38.456Z,6
2022-10-17T20:48:36.950Z,6
2022-10-17T20:50:37.065Z,5
2022-10-17T20:52:37.137Z,6
2022-10-17T20:54:37.271Z,6
2022-10-17T20:56:37.327Z,5
2022-10-17T20:58:37.420Z,5
2022-10-17T21:00:37.505Z,5
2022-10-17T21:04:46.837Z,6
2022-10-17T21:06:37.768Z,6
2022-10-17T21:08:37.851Z,6
2022-10-17T21:12:53.103Z,5
2022-10-17T21:14:38.135Z,5
2022-10-17T21:16:38.186Z,5
2022-10-17T21:18:38.280Z,5
2022-10-17T21:22:38.426Z,6
2022-10-17T21:27:08.704Z,5
2022-10-17T21:29:08.807Z,5
2022-10-17T21:33:09.088Z,5
2022-10-17T21:37:09.289Z,6
2022-10-17T21:41:09.521Z,5
2022-10-17T21:43:09.644Z,5
2022-10-17T21:45:15.648Z,5
2022-10-17T21:47:09.855Z,5
2022-10-17T21:51:10.070Z,5
2022-10-17T21:55:10.334Z,5
2022-10-17T21:57:10.471Z,6
2022-10-17T21:59:10.522Z,6
2022-10-17T22:01:10.714Z,5
2022-10-17T22:03:10.743Z,6
2022-10-17T22:05:10.859Z,5
2022-10-17T22:07:10.962Z,6
2022-10-17T22:09:11.087Z,6
2022-10-17T22:11:11.199Z,5
2022-10-17T22:13:11.295Z,6
2022-10-17T22:15:11.516Z,6
2022-10-17T22:17:11.500Z,5
2022-10-17T22:19:11.606Z,6
2022-10-17T22:23:11.842Z,6
2022-10-17T22:25:11.939Z,6
2022-10-17T22:27:12.064Z,6
2022-10-17T22:29:12.168Z,6
2022-10-17T22:31:12.339Z,5
2022-10-17T22:33:12.427Z,5
2022-10-17T22:35:12.531Z,5
2022-10-17T22:37:12.601Z,5
2022-10-17T22:39:12.695Z,5
2022-10-17T22:41:12.795Z,5
2022-10-17T22:43:12.907Z,5
2022-10-17T22:45:13.031Z,5
2022-10-17T22:49:13.251Z,5
2022-10-17T22:51:13.467Z,5
2022-10-17T22:53:13.438Z,5
2022-10-17T22:55:13.592Z,5
2022-10-17T22:57:13.656Z,6
2022-10-17T22:59:13.766Z,6
2022-10-17T23:01:13.963Z,7
2022-10-17T23:03:13.985Z,7
2022-10-17T23:05:14.075Z,8
2022-10-17T23:07:14.197Z,7
2022-10-17T23:09:14.370Z,8
2022-10-17T23:11:14.403Z,9
2022-10-17T23:13:14.513Z,9
2022-10-17T23:15:14.681Z,9
2022-10-17T23:17:14.686Z,10
2022-10-17T23:21:14.902Z,10
2022-10-17T23:23:15.012Z,12
2022-10-17T23:25:15.123Z,13
2022-10-17T23:27:15.257Z,12
2022-10-17T23:29:15.325Z,10
2022-10-17T23:31:15.418Z,10
2022-10-17T23:33:15.520Z,9
2022-10-17T23:35:15.662Z,8
2022-10-17T23:37:15.711Z,8
2022-10-17T23:39:15.810Z,8
2022-10-17T23:41:15.904Z,8
2022-10-17T23:43:16.007Z,8
2022-10-17T23:45:16.108Z,7
2022-10-17T23:47:16.214Z,8
2022-10-17T23:49:16.318Z,7
2022-10-17T23:51:16.424Z,7
2022-10-17T23:53:16.520Z,6
2022-10-17T23:55:16.680Z,7
2022-10-17T23:57:16.855Z,8
2022-10-17T23:59:16.828Z,8
